sensor_id;sensor_type;location;lat;lon;timestamp;P1;durP1;ratioP1;P2;durP2;ratioP2
31652;SDS011;18261;53.648;9.910;2022-12-07T00:01:34;28.98;;;17.90;;
31652;SDS011;18261;53.648;9.910;2022-12-07T00:04:01;29.63;;;18.48;;
31652;SDS011;18261;53.648;9.910;2022-12-07T00:06:34;35.05;;;19.42;;
31652;SDS011;18261;53.648;9.910;2022-12-07T00:09:01;33.38;;;18.33;;
31652;SDS011;18261;53.648;9.910;2022-12-07T00:11:27;33.28;;;18.90;;
31652;SDS011;18261;53.648;9.910;2022-12-07T00:13:54;31.25;;;18.23;;
31652;SDS011;18261;53.648;9.910;2022-12-07T00:16:21;28.30;;;17.77;;
31652;SDS011;18261;53.648;9.910;2022-12-07T00:18:47;30.88;;;18.75;;
31652;SDS011;18261;53.648;9.910;2022-12-07T00:21:15;30.90;;;18.83;;
31652;SDS011;18261;53.648;9.910;2022-12-07T00:23:42;31.80;;;19.42;;
31652;SDS011;18261;53.648;9.910;2022-12-07T00:26:50;37.42;;;18.65;;
31652;SDS011;18261;53.648;9.910;2022-12-07T00:28:58;29.23;;;18.58;;
31652;SDS011;18261;53.648;9.910;2022-12-07T00:31:26;34.13;;;19.77;;
31652;SDS011;18261;53.648;9.910;2022-12-07T00:33:52;33.95;;;19.70;;
31652;SDS011;18261;53.648;9.910;2022-12-07T00:36:19;36.60;;;19.85;;
31652;SDS011;18261;53.648;9.910;2022-12-07T00:38:45;34.85;;;18.70;;
31652;SDS011;18261;53.648;9.910;2022-12-07T00:41:15;36.90;;;18.75;;
31652;SDS011;18261;53.648;9.910;2022-12-07T00:43:42;31.38;;;18.23;;
31652;SDS011;18261;53.648;9.910;2022-12-07T00:46:09;29.92;;;18.23;;
31652;SDS011;18261;53.648;9.910;2022-12-07T00:48:35;31.95;;;17.52;;
31652;SDS011;18261;53.648;9.910;2022-12-07T00:51:01;29.23;;;17.48;;
31652;SDS011;18261;53.648;9.910;2022-12-07T00:53:27;29.75;;;18.20;;
31652;SDS011;18261;53.648;9.910;2022-12-07T00:55:53;30.45;;;17.67;;
31652;SDS011;18261;53.648;9.910;2022-12-07T00:58:21;29.67;;;17.15;;
31652;SDS011;18261;53.648;9.910;2022-12-07T01:00:47;29.30;;;16.67;;
31652;SDS011;18261;53.648;9.910;2022-12-07T01:03:13;30.48;;;16.30;;
31652;SDS011;18261;53.648;9.910;2022-12-07T01:05:40;29.80;;;15.70;;
31652;SDS011;18261;53.648;9.910;2022-12-07T01:08:06;27.48;;;14.80;;
31652;SDS011;18261;53.648;9.910;2022-12-07T01:10:32;28.02;;;14.98;;
31652;SDS011;18261;53.648;9.910;2022-12-07T01:12:58;26.58;;;14.52;;
31652;SDS011;18261;53.648;9.910;2022-12-07T01:15:25;24.98;;;13.75;;
31652;SDS011;18261;53.648;9.910;2022-12-07T01:17:51;27.88;;;12.77;;
31652;SDS011;18261;53.648;9.910;2022-12-07T01:20:17;26.60;;;13.90;;
31652;SDS011;18261;53.648;9.910;2022-12-07T01:22:43;28.02;;;13.40;;
31652;SDS011;18261;53.648;9.910;2022-12-07T01:25:10;24.38;;;12.50;;
31652;SDS011;18261;53.648;9.910;2022-12-07T01:27:37;26.17;;;12.85;;
31652;SDS011;18261;53.648;9.910;2022-12-07T01:30:04;29.13;;;13.70;;
31652;SDS011;18261;53.648;9.910;2022-12-07T01:32:30;23.45;;;12.50;;
31652;SDS011;18261;53.648;9.910;2022-12-07T01:34:56;22.48;;;12.73;;
31652;SDS011;18261;53.648;9.910;2022-12-07T01:37:22;26.60;;;12.82;;
31652;SDS011;18261;53.648;9.910;2022-12-07T01:39:48;29.80;;;13.98;;
31652;SDS011;18261;53.648;9.910;2022-12-07T01:42:14;28.95;;;13.32;;
31652;SDS011;18261;53.648;9.910;2022-12-07T01:47:25;26.98;;;11.93;;
31652;SDS011;18261;53.648;9.910;2022-12-07T01:49:51;26.20;;;12.35;;
31652;SDS011;18261;53.648;9.910;2022-12-07T01:52:20;28.50;;;12.43;;
31652;SDS011;18261;53.648;9.910;2022-12-07T01:54:49;25.65;;;13.13;;
31652;SDS011;18261;53.648;9.910;2022-12-07T01:57:16;25.27;;;11.52;;
31652;SDS011;18261;53.648;9.910;2022-12-07T01:59:43;20.35;;;10.88;;
31652;SDS011;18261;53.648;9.910;2022-12-07T02:02:10;19.17;;;10.80;;
31652;SDS011;18261;53.648;9.910;2022-12-07T02:04:38;25.55;;;11.57;;
31652;SDS011;18261;53.648;9.910;2022-12-07T02:07:04;29.30;;;11.40;;
31652;SDS011;18261;53.648;9.910;2022-12-07T02:09:30;25.40;;;11.95;;
31652;SDS011;18261;53.648;9.910;2022-12-07T02:11:56;23.15;;;10.55;;
31652;SDS011;18261;53.648;9.910;2022-12-07T02:14:23;24.00;;;10.43;;
31652;SDS011;18261;53.648;9.910;2022-12-07T02:19:51;26.52;;;10.82;;
31652;SDS011;18261;53.648;9.910;2022-12-07T02:25:21;19.10;;;9.02;;
31652;SDS011;18261;53.648;9.910;2022-12-07T02:28:04;20.95;;;9.38;;
31652;SDS011;18261;53.648;9.910;2022-12-07T02:30:31;22.10;;;9.50;;
31652;SDS011;18261;53.648;9.910;2022-12-07T02:33:00;23.52;;;9.57;;
31652;SDS011;18261;53.648;9.910;2022-12-07T02:35:45;23.50;;;8.40;;
31652;SDS011;18261;53.648;9.910;2022-12-07T02:40:48;15.15;;;7.78;;
31652;SDS011;18261;53.648;9.910;2022-12-07T02:45:41;17.35;;;6.68;;
31652;SDS011;18261;53.648;9.910;2022-12-07T02:48:08;21.02;;;6.28;;
31652;SDS011;18261;53.648;9.910;2022-12-07T02:50:35;13.13;;;5.82;;
31652;SDS011;18261;53.648;9.910;2022-12-07T02:53:01;13.73;;;5.10;;
31652;SDS011;18261;53.648;9.910;2022-12-07T02:55:29;18.77;;;5.72;;
31652;SDS011;18261;53.648;9.910;2022-12-07T03:00:44;11.20;;;4.28;;
31652;SDS011;18261;53.648;9.910;2022-12-07T03:03:13;8.98;;;3.70;;
31652;SDS011;18261;53.648;9.910;2022-12-07T03:15:32;9.00;;;2.60;;
31652;SDS011;18261;53.648;9.910;2022-12-07T03:17:59;6.38;;;2.35;;
31652;SDS011;18261;53.648;9.910;2022-12-07T03:20:28;7.47;;;2.28;;
31652;SDS011;18261;53.648;9.910;2022-12-07T03:22:56;5.85;;;2.05;;
31652;SDS011;18261;53.648;9.910;2022-12-07T03:25:22;8.18;;;2.33;;
31652;SDS011;18261;53.648;9.910;2022-12-07T03:27:55;12.70;;;2.10;;
31652;SDS011;18261;53.648;9.910;2022-12-07T03:30:23;6.65;;;2.10;;
31652;SDS011;18261;53.648;9.910;2022-12-07T03:32:54;7.65;;;1.90;;
31652;SDS011;18261;53.648;9.910;2022-12-07T03:35:28;7.63;;;1.83;;
31652;SDS011;18261;53.648;9.910;2022-12-07T03:38:05;7.40;;;2.00;;
31652;SDS011;18261;53.648;9.910;2022-12-07T03:40:35;10.25;;;2.63;;
31652;SDS011;18261;53.648;9.910;2022-12-07T03:43:03;8.75;;;2.30;;
31652;SDS011;18261;53.648;9.910;2022-12-07T03:45:31;8.52;;;2.15;;
31652;SDS011;18261;53.648;9.910;2022-12-07T03:48:06;9.93;;;2.45;;
31652;SDS011;18261;53.648;9.910;2022-12-07T03:50:38;7.97;;;2.10;;
31652;SDS011;18261;53.648;9.910;2022-12-07T03:53:14;7.75;;;2.13;;
31652;SDS011;18261;53.648;9.910;2022-12-07T03:55:42;5.68;;;2.38;;
31652;SDS011;18261;53.648;9.910;2022-12-07T03:58:10;5.30;;;2.35;;
31652;SDS011;18261;53.648;9.910;2022-12-07T04:00:36;6.10;;;2.40;;
31652;SDS011;18261;53.648;9.910;2022-12-07T04:03:02;7.68;;;2.88;;
31652;SDS011;18261;53.648;9.910;2022-12-07T04:05:28;8.23;;;2.33;;
31652;SDS011;18261;53.648;9.910;2022-12-07T04:07:54;11.15;;;3.25;;
31652;SDS011;18261;53.648;9.910;2022-12-07T04:10:20;12.15;;;2.95;;
31652;SDS011;18261;53.648;9.910;2022-12-07T04:12:46;8.85;;;2.70;;
31652;SDS011;18261;53.648;9.910;2022-12-07T04:15:12;9.55;;;3.10;;
31652;SDS011;18261;53.648;9.910;2022-12-07T04:17:38;6.63;;;2.75;;
31652;SDS011;18261;53.648;9.910;2022-12-07T04:20:04;11.00;;;3.85;;
31652;SDS011;18261;53.648;9.910;2022-12-07T04:22:31;6.35;;;2.97;;
31652;SDS011;18261;53.648;9.910;2022-12-07T04:24:57;7.28;;;3.03;;
31652;SDS011;18261;53.648;9.910;2022-12-07T04:27:23;6.20;;;2.85;;
31652;SDS011;18261;53.648;9.910;2022-12-07T04:29:48;10.02;;;2.88;;
31652;SDS011;18261;53.648;9.910;2022-12-07T04:32:14;15.45;;;3.95;;
31652;SDS011;18261;53.648;9.910;2022-12-07T04:34:40;11.75;;;4.70;;
31652;SDS011;18261;53.648;9.910;2022-12-07T04:37:06;7.65;;;3.60;;
31652;SDS011;18261;53.648;9.910;2022-12-07T04:39:32;10.43;;;3.80;;
31652;SDS011;18261;53.648;9.910;2022-12-07T04:41:59;10.38;;;4.00;;
31652;SDS011;18261;53.648;9.910;2022-12-07T04:44:26;15.35;;;3.83;;
31652;SDS011;18261;53.648;9.910;2022-12-07T04:46:52;11.98;;;4.28;;
31652;SDS011;18261;53.648;9.910;2022-12-07T04:49:18;11.55;;;3.75;;
31652;SDS011;18261;53.648;9.910;2022-12-07T04:51:45;12.13;;;4.35;;
31652;SDS011;18261;53.648;9.910;2022-12-07T04:54:11;6.70;;;3.72;;
31652;SDS011;18261;53.648;9.910;2022-12-07T04:56:37;8.75;;;3.88;;
31652;SDS011;18261;53.648;9.910;2022-12-07T04:59:03;18.98;;;5.22;;
31652;SDS011;18261;53.648;9.910;2022-12-07T05:01:29;9.15;;;4.40;;
31652;SDS011;18261;53.648;9.910;2022-12-07T05:03:56;13.73;;;4.30;;
31652;SDS011;18261;53.648;9.910;2022-12-07T05:06:22;16.80;;;5.07;;
31652;SDS011;18261;53.648;9.910;2022-12-07T05:08:48;15.43;;;4.72;;
31652;SDS011;18261;53.648;9.910;2022-12-07T05:11:14;11.43;;;4.47;;
31652;SDS011;18261;53.648;9.910;2022-12-07T05:14:00;10.98;;;4.20;;
31652;SDS011;18261;53.648;9.910;2022-12-07T05:16:26;12.30;;;4.28;;
31652;SDS011;18261;53.648;9.910;2022-12-07T05:18:52;11.05;;;4.70;;
31652;SDS011;18261;53.648;9.910;2022-12-07T05:21:18;11.43;;;4.75;;
31652;SDS011;18261;53.648;9.910;2022-12-07T05:23:44;8.40;;;4.35;;
31652;SDS011;18261;53.648;9.910;2022-12-07T05:26:10;12.15;;;4.70;;
31652;SDS011;18261;53.648;9.910;2022-12-07T05:28:36;11.60;;;4.45;;
31652;SDS011;18261;53.648;9.910;2022-12-07T05:31:02;12.45;;;4.45;;
31652;SDS011;18261;53.648;9.910;2022-12-07T05:33:28;12.02;;;4.65;;
31652;SDS011;18261;53.648;9.910;2022-12-07T05:35:54;12.20;;;4.75;;
31652;SDS011;18261;53.648;9.910;2022-12-07T05:38:20;9.57;;;4.40;;
31652;SDS011;18261;53.648;9.910;2022-12-07T05:40:46;9.48;;;3.85;;
31652;SDS011;18261;53.648;9.910;2022-12-07T05:43:12;13.50;;;4.40;;
31652;SDS011;18261;53.648;9.910;2022-12-07T05:45:38;13.25;;;3.83;;
31652;SDS011;18261;53.648;9.910;2022-12-07T05:48:04;11.85;;;4.07;;
31652;SDS011;18261;53.648;9.910;2022-12-07T05:50:30;11.27;;;4.78;;
31652;SDS011;18261;53.648;9.910;2022-12-07T05:52:55;10.63;;;4.90;;
31652;SDS011;18261;53.648;9.910;2022-12-07T05:55:21;9.07;;;4.65;;
31652;SDS011;18261;53.648;9.910;2022-12-07T05:57:47;14.85;;;6.90;;
31652;SDS011;18261;53.648;9.910;2022-12-07T06:00:32;10.65;;;4.82;;
31652;SDS011;18261;53.648;9.910;2022-12-07T06:02:58;12.85;;;5.00;;
31652;SDS011;18261;53.648;9.910;2022-12-07T06:05:24;13.10;;;4.00;;
31652;SDS011;18261;53.648;9.910;2022-12-07T06:07:50;13.90;;;7.20;;
31652;SDS011;18261;53.648;9.910;2022-12-07T06:10:16;15.90;;;4.95;;
31652;SDS011;18261;53.648;9.910;2022-12-07T06:12:42;7.82;;;4.40;;
31652;SDS011;18261;53.648;9.910;2022-12-07T06:15:10;12.98;;;4.38;;
31652;SDS011;18261;53.648;9.910;2022-12-07T06:17:38;16.52;;;4.57;;
31652;SDS011;18261;53.648;9.910;2022-12-07T06:20:04;11.32;;;4.25;;
31652;SDS011;18261;53.648;9.910;2022-12-07T06:22:30;9.82;;;4.25;;
31652;SDS011;18261;53.648;9.910;2022-12-07T06:24:56;12.52;;;4.60;;
31652;SDS011;18261;53.648;9.910;2022-12-07T06:27:22;10.98;;;3.70;;
31652;SDS011;18261;53.648;9.910;2022-12-07T06:29:48;14.45;;;4.70;;
31652;SDS011;18261;53.648;9.910;2022-12-07T06:32:14;11.57;;;4.28;;
31652;SDS011;18261;53.648;9.910;2022-12-07T06:34:40;12.65;;;4.43;;
31652;SDS011;18261;53.648;9.910;2022-12-07T06:37:06;11.80;;;4.20;;
31652;SDS011;18261;53.648;9.910;2022-12-07T06:39:32;12.15;;;4.20;;
31652;SDS011;18261;53.648;9.910;2022-12-07T06:41:58;15.93;;;5.20;;
31652;SDS011;18261;53.648;9.910;2022-12-07T06:44:24;8.10;;;3.60;;
31652;SDS011;18261;53.648;9.910;2022-12-07T06:46:50;8.73;;;3.80;;
31652;SDS011;18261;53.648;9.910;2022-12-07T06:49:16;10.80;;;4.30;;
31652;SDS011;18261;53.648;9.910;2022-12-07T06:51:42;10.73;;;4.70;;
31652;SDS011;18261;53.648;9.910;2022-12-07T06:54:09;15.50;;;4.53;;
31652;SDS011;18261;53.648;9.910;2022-12-07T06:56:35;10.43;;;3.83;;
31652;SDS011;18261;53.648;9.910;2022-12-07T06:59:01;15.48;;;3.88;;
31652;SDS011;18261;53.648;9.910;2022-12-07T07:01:27;10.95;;;3.70;;
31652;SDS011;18261;53.648;9.910;2022-12-07T07:03:53;8.75;;;3.30;;
31652;SDS011;18261;53.648;9.910;2022-12-07T07:06:19;6.68;;;3.22;;
31652;SDS011;18261;53.648;9.910;2022-12-07T07:08:45;14.57;;;3.92;;
31652;SDS011;18261;53.648;9.910;2022-12-07T07:11:11;11.00;;;3.83;;
31652;SDS011;18261;53.648;9.910;2022-12-07T07:13:37;13.65;;;4.20;;
31652;SDS011;18261;53.648;9.910;2022-12-07T07:16:04;7.68;;;3.15;;
31652;SDS011;18261;53.648;9.910;2022-12-07T07:18:30;20.08;;;3.75;;
31652;SDS011;18261;53.648;9.910;2022-12-07T07:20:56;14.60;;;3.63;;
31652;SDS011;18261;53.648;9.910;2022-12-07T07:23:23;13.77;;;3.20;;
31652;SDS011;18261;53.648;9.910;2022-12-07T07:25:49;10.45;;;2.83;;
31652;SDS011;18261;53.648;9.910;2022-12-07T07:28:15;7.55;;;2.85;;
31652;SDS011;18261;53.648;9.910;2022-12-07T07:30:41;20.40;;;3.40;;
31652;SDS011;18261;53.648;9.910;2022-12-07T07:33:07;8.77;;;2.90;;
31652;SDS011;18261;53.648;9.910;2022-12-07T07:35:34;8.80;;;2.65;;
31652;SDS011;18261;53.648;9.910;2022-12-07T07:38:00;13.55;;;2.40;;
31652;SDS011;18261;53.648;9.910;2022-12-07T07:40:27;7.43;;;2.40;;
31652;SDS011;18261;53.648;9.910;2022-12-07T07:42:56;6.53;;;2.45;;
31652;SDS011;18261;53.648;9.910;2022-12-07T07:45:23;9.45;;;2.53;;
31652;SDS011;18261;53.648;9.910;2022-12-07T07:47:49;8.00;;;2.47;;
31652;SDS011;18261;53.648;9.910;2022-12-07T07:50:16;8.23;;;2.45;;
31652;SDS011;18261;53.648;9.910;2022-12-07T07:52:42;10.57;;;2.88;;
31652;SDS011;18261;53.648;9.910;2022-12-07T07:55:08;13.13;;;3.30;;
31652;SDS011;18261;53.648;9.910;2022-12-07T07:57:37;14.63;;;6.05;;
31652;SDS011;18261;53.648;9.910;2022-12-07T08:00:04;11.18;;;4.68;;
31652;SDS011;18261;53.648;9.910;2022-12-07T08:02:31;13.50;;;4.60;;
31652;SDS011;18261;53.648;9.910;2022-12-07T08:04:57;20.20;;;6.38;;
31652;SDS011;18261;53.648;9.910;2022-12-07T08:07:23;13.95;;;5.05;;
31652;SDS011;18261;53.648;9.910;2022-12-07T08:09:48;13.20;;;4.68;;
31652;SDS011;18261;53.648;9.910;2022-12-07T08:12:14;10.82;;;4.03;;
31652;SDS011;18261;53.648;9.910;2022-12-07T08:14:40;7.07;;;2.25;;
31652;SDS011;18261;53.648;9.910;2022-12-07T08:17:06;9.90;;;2.10;;
31652;SDS011;18261;53.648;9.910;2022-12-07T08:19:32;8.55;;;2.40;;
31652;SDS011;18261;53.648;9.910;2022-12-07T08:21:59;10.27;;;2.33;;
31652;SDS011;18261;53.648;9.910;2022-12-07T08:24:25;9.65;;;2.20;;
31652;SDS011;18261;53.648;9.910;2022-12-07T08:26:51;19.77;;;2.35;;
31652;SDS011;18261;53.648;9.910;2022-12-07T08:29:17;11.30;;;2.50;;
31652;SDS011;18261;53.648;9.910;2022-12-07T08:31:43;11.75;;;2.53;;
31652;SDS011;18261;53.648;9.910;2022-12-07T08:34:10;10.65;;;2.00;;
31652;SDS011;18261;53.648;9.910;2022-12-07T08:36:36;6.88;;;1.90;;
31652;SDS011;18261;53.648;9.910;2022-12-07T08:39:02;7.63;;;2.28;;
31652;SDS011;18261;53.648;9.910;2022-12-07T08:41:29;21.42;;;7.03;;
31652;SDS011;18261;53.648;9.910;2022-12-07T08:43:55;15.10;;;3.60;;
31652;SDS011;18261;53.648;9.910;2022-12-07T08:46:23;14.95;;;2.85;;
31652;SDS011;18261;53.648;9.910;2022-12-07T08:48:55;12.88;;;2.88;;
31652;SDS011;18261;53.648;9.910;2022-12-07T08:51:23;14.75;;;2.53;;
31652;SDS011;18261;53.648;9.910;2022-12-07T08:53:50;4.70;;;2.63;;
31652;SDS011;18261;53.648;9.910;2022-12-07T08:56:16;15.05;;;2.70;;
31652;SDS011;18261;53.648;9.910;2022-12-07T08:58:42;7.18;;;2.35;;
31652;SDS011;18261;53.648;9.910;2022-12-07T09:01:09;6.65;;;2.35;;
31652;SDS011;18261;53.648;9.910;2022-12-07T09:03:35;6.88;;;2.10;;
31652;SDS011;18261;53.648;9.910;2022-12-07T09:06:01;10.23;;;2.28;;
31652;SDS011;18261;53.648;9.910;2022-12-07T09:08:31;12.23;;;2.65;;
31652;SDS011;18261;53.648;9.910;2022-12-07T09:10:58;16.45;;;2.92;;
31652;SDS011;18261;53.648;9.910;2022-12-07T09:13:24;9.75;;;2.55;;
31652;SDS011;18261;53.648;9.910;2022-12-07T09:15:50;8.55;;;2.50;;
31652;SDS011;18261;53.648;9.910;2022-12-07T09:18:16;19.10;;;2.80;;
31652;SDS011;18261;53.648;9.910;2022-12-07T09:20:42;13.15;;;2.20;;
31652;SDS011;18261;53.648;9.910;2022-12-07T09:23:08;16.65;;;3.85;;
31652;SDS011;18261;53.648;9.910;2022-12-07T09:25:34;16.85;;;2.30;;
31652;SDS011;18261;53.648;9.910;2022-12-07T09:28:00;23.95;;;9.07;;
31652;SDS011;18261;53.648;9.910;2022-12-07T09:30:27;19.85;;;3.28;;
31652;SDS011;18261;53.648;9.910;2022-12-07T09:32:53;10.20;;;3.25;;
31652;SDS011;18261;53.648;9.910;2022-12-07T09:35:19;20.23;;;3.83;;
31652;SDS011;18261;53.648;9.910;2022-12-07T09:37:46;13.77;;;2.97;;
31652;SDS011;18261;53.648;9.910;2022-12-07T09:40:12;16.65;;;2.38;;
31652;SDS011;18261;53.648;9.910;2022-12-07T09:42:39;15.70;;;2.70;;
31652;SDS011;18261;53.648;9.910;2022-12-07T09:45:17;23.42;;;2.70;;
31652;SDS011;18261;53.648;9.910;2022-12-07T09:47:44;13.82;;;3.05;;
31652;SDS011;18261;53.648;9.910;2022-12-07T09:50:15;28.08;;;13.48;;
31652;SDS011;18261;53.648;9.910;2022-12-07T09:52:42;10.45;;;2.47;;
31652;SDS011;18261;53.648;9.910;2022-12-07T09:55:12;13.63;;;2.30;;
31652;SDS011;18261;53.648;9.910;2022-12-07T09:57:39;19.67;;;2.47;;
31652;SDS011;18261;53.648;9.910;2022-12-07T10:00:12;17.85;;;2.42;;
31652;SDS011;18261;53.648;9.910;2022-12-07T10:02:40;14.97;;;2.20;;
31652;SDS011;18261;53.648;9.910;2022-12-07T10:05:13;15.13;;;2.40;;
31652;SDS011;18261;53.648;9.910;2022-12-07T10:07:39;15.15;;;2.35;;
31652;SDS011;18261;53.648;9.910;2022-12-07T10:10:23;23.58;;;2.90;;
31652;SDS011;18261;53.648;9.910;2022-12-07T10:12:54;10.15;;;2.15;;
31652;SDS011;18261;53.648;9.910;2022-12-07T10:15:20;22.77;;;2.55;;
31652;SDS011;18261;53.648;9.910;2022-12-07T10:17:51;11.48;;;2.15;;
31652;SDS011;18261;53.648;9.910;2022-12-07T10:22:56;17.35;;;2.35;;
31652;SDS011;18261;53.648;9.910;2022-12-07T10:25:23;15.30;;;2.00;;
31652;SDS011;18261;53.648;9.910;2022-12-07T10:28:00;15.00;;;3.70;;
31652;SDS011;18261;53.648;9.910;2022-12-07T10:30:27;10.80;;;2.67;;
31652;SDS011;18261;53.648;9.910;2022-12-07T10:32:53;12.52;;;1.70;;
31652;SDS011;18261;53.648;9.910;2022-12-07T10:35:27;18.63;;;2.20;;
31652;SDS011;18261;53.648;9.910;2022-12-07T10:37:54;10.38;;;1.80;;
31652;SDS011;18261;53.648;9.910;2022-12-07T10:45:27;7.78;;;1.80;;
31652;SDS011;18261;53.648;9.910;2022-12-07T10:48:10;16.63;;;2.78;;
31652;SDS011;18261;53.648;9.910;2022-12-07T10:53:09;13.15;;;2.30;;
31652;SDS011;18261;53.648;9.910;2022-12-07T11:01:11;14.43;;;2.25;;
31652;SDS011;18261;53.648;9.910;2022-12-07T11:06:16;16.95;;;3.17;;
31652;SDS011;18261;53.648;9.910;2022-12-07T11:08:54;9.25;;;2.00;;
31652;SDS011;18261;53.648;9.910;2022-12-07T11:11:30;17.15;;;2.00;;
31652;SDS011;18261;53.648;9.910;2022-12-07T11:14:03;14.75;;;3.33;;
31652;SDS011;18261;53.648;9.910;2022-12-07T11:16:49;8.57;;;2.00;;
31652;SDS011;18261;53.648;9.910;2022-12-07T11:35:29;15.65;;;3.97;;
31652;SDS011;18261;53.648;9.910;2022-12-07T11:38:15;11.80;;;2.28;;
31652;SDS011;18261;53.648;9.910;2022-12-07T11:40:46;16.50;;;4.45;;
31652;SDS011;18261;53.648;9.910;2022-12-07T11:45:44;15.10;;;2.85;;
31652;SDS011;18261;53.648;9.910;2022-12-07T11:50:48;8.98;;;2.30;;
31652;SDS011;18261;53.648;9.910;2022-12-07T12:03:34;14.98;;;2.38;;
31652;SDS011;18261;53.648;9.910;2022-12-07T12:06:01;10.57;;;2.30;;
31652;SDS011;18261;53.648;9.910;2022-12-07T12:08:27;11.02;;;2.60;;
31652;SDS011;18261;53.648;9.910;2022-12-07T12:11:00;17.77;;;2.55;;
31652;SDS011;18261;53.648;9.910;2022-12-07T12:16:09;17.02;;;2.65;;
31652;SDS011;18261;53.648;9.910;2022-12-07T12:18:39;15.10;;;2.40;;
31652;SDS011;18261;53.648;9.910;2022-12-07T12:21:12;18.30;;;3.33;;
31652;SDS011;18261;53.648;9.910;2022-12-07T12:23:41;13.02;;;2.95;;
31652;SDS011;18261;53.648;9.910;2022-12-07T12:26:16;16.52;;;3.22;;
31652;SDS011;18261;53.648;9.910;2022-12-07T12:28:59;11.52;;;2.78;;
31652;SDS011;18261;53.648;9.910;2022-12-07T12:33:56;16.45;;;2.20;;
31652;SDS011;18261;53.648;9.910;2022-12-07T12:54:18;13.30;;;2.75;;
31652;SDS011;18261;53.648;9.910;2022-12-07T13:01:49;10.60;;;2.25;;
31652;SDS011;18261;53.648;9.910;2022-12-07T13:04:36;12.63;;;2.55;;
31652;SDS011;18261;53.648;9.910;2022-12-07T13:07:04;13.70;;;2.17;;
31652;SDS011;18261;53.648;9.910;2022-12-07T13:09:31;15.93;;;1.95;;
31652;SDS011;18261;53.648;9.910;2022-12-07T13:12:05;14.23;;;2.20;;
31652;SDS011;18261;53.648;9.910;2022-12-07T13:17:12;12.75;;;2.50;;
31652;SDS011;18261;53.648;9.910;2022-12-07T13:19:55;21.30;;;3.20;;
31652;SDS011;18261;53.648;9.910;2022-12-07T13:25:04;13.00;;;1.98;;
31652;SDS011;18261;53.648;9.910;2022-12-07T13:27:31;17.55;;;2.40;;
31652;SDS011;18261;53.648;9.910;2022-12-07T13:29:57;7.30;;;1.60;;
31652;SDS011;18261;53.648;9.910;2022-12-07T13:32:25;10.82;;;2.15;;
31652;SDS011;18261;53.648;9.910;2022-12-07T13:34:51;14.27;;;2.72;;
31652;SDS011;18261;53.648;9.910;2022-12-07T13:39:52;12.20;;;1.83;;
31652;SDS011;18261;53.648;9.910;2022-12-07T13:44:48;15.85;;;1.77;;
31652;SDS011;18261;53.648;9.910;2022-12-07T13:47:19;10.63;;;1.52;;
31652;SDS011;18261;53.648;9.910;2022-12-07T13:49:48;16.83;;;2.28;;
31652;SDS011;18261;53.648;9.910;2022-12-07T13:52:16;13.05;;;2.55;;
31652;SDS011;18261;53.648;9.910;2022-12-07T13:54:49;12.25;;;1.70;;
31652;SDS011;18261;53.648;9.910;2022-12-07T13:57:21;13.98;;;1.70;;
31652;SDS011;18261;53.648;9.910;2022-12-07T13:59:47;9.75;;;1.80;;
31652;SDS011;18261;53.648;9.910;2022-12-07T14:02:21;10.65;;;1.52;;
31652;SDS011;18261;53.648;9.910;2022-12-07T14:04:48;8.35;;;1.60;;
31652;SDS011;18261;53.648;9.910;2022-12-07T14:07:24;13.70;;;1.80;;
31652;SDS011;18261;53.648;9.910;2022-12-07T14:09:55;12.95;;;1.98;;
31652;SDS011;18261;53.648;9.910;2022-12-07T14:12:21;12.75;;;2.05;;
31652;SDS011;18261;53.648;9.910;2022-12-07T14:14:48;16.40;;;2.05;;
31652;SDS011;18261;53.648;9.910;2022-12-07T14:17:24;8.95;;;1.60;;
31652;SDS011;18261;53.648;9.910;2022-12-07T14:22:56;11.10;;;1.70;;
31652;SDS011;18261;53.648;9.910;2022-12-07T14:25:23;8.88;;;2.10;;
31652;SDS011;18261;53.648;9.910;2022-12-07T14:30:15;13.18;;;3.75;;
31652;SDS011;18261;53.648;9.910;2022-12-07T14:32:42;8.50;;;1.67;;
31652;SDS011;18261;53.648;9.910;2022-12-07T14:35:13;10.98;;;2.08;;
31652;SDS011;18261;53.648;9.910;2022-12-07T14:37:40;15.00;;;1.90;;
31652;SDS011;18261;53.648;9.910;2022-12-07T14:40:06;9.43;;;1.80;;
31652;SDS011;18261;53.648;9.910;2022-12-07T14:42:33;9.05;;;2.08;;
31652;SDS011;18261;53.648;9.910;2022-12-07T14:44:59;9.65;;;2.20;;
31652;SDS011;18261;53.648;9.910;2022-12-07T14:47:25;10.75;;;2.70;;
31652;SDS011;18261;53.648;9.910;2022-12-07T14:49:52;11.23;;;2.55;;
31652;SDS011;18261;53.648;9.910;2022-12-07T14:52:27;16.13;;;3.30;;
31652;SDS011;18261;53.648;9.910;2022-12-07T14:54:55;13.68;;;4.30;;
31652;SDS011;18261;53.648;9.910;2022-12-07T14:57:21;8.82;;;2.38;;
31652;SDS011;18261;53.648;9.910;2022-12-07T14:59:47;17.80;;;5.85;;
31652;SDS011;18261;53.648;9.910;2022-12-07T15:02:13;15.88;;;3.03;;
31652;SDS011;18261;53.648;9.910;2022-12-07T15:04:40;15.13;;;2.25;;
31652;SDS011;18261;53.648;9.910;2022-12-07T15:07:09;11.75;;;1.63;;
31652;SDS011;18261;53.648;9.910;2022-12-07T15:09:36;11.57;;;2.20;;
31652;SDS011;18261;53.648;9.910;2022-12-07T15:12:02;10.15;;;2.65;;
31652;SDS011;18261;53.648;9.910;2022-12-07T15:14:28;8.48;;;1.52;;
31652;SDS011;18261;53.648;9.910;2022-12-07T15:16:54;7.78;;;1.83;;
31652;SDS011;18261;53.648;9.910;2022-12-07T15:19:41;15.23;;;4.03;;
31652;SDS011;18261;53.648;9.910;2022-12-07T15:22:07;16.08;;;6.72;;
31652;SDS011;18261;53.648;9.910;2022-12-07T15:24:35;14.63;;;4.32;;
31652;SDS011;18261;53.648;9.910;2022-12-07T15:27:01;7.93;;;2.20;;
31652;SDS011;18261;53.648;9.910;2022-12-07T15:29:27;13.40;;;2.65;;
31652;SDS011;18261;53.648;9.910;2022-12-07T15:31:53;4.05;;;1.35;;
31652;SDS011;18261;53.648;9.910;2022-12-07T15:34:19;6.38;;;1.77;;
31652;SDS011;18261;53.648;9.910;2022-12-07T15:36:45;7.15;;;2.58;;
31652;SDS011;18261;53.648;9.910;2022-12-07T15:39:11;13.95;;;2.50;;
31652;SDS011;18261;53.648;9.910;2022-12-07T15:41:37;10.77;;;2.67;;
31652;SDS011;18261;53.648;9.910;2022-12-07T15:44:03;16.80;;;5.82;;
31652;SDS011;18261;53.648;9.910;2022-12-07T15:47:02;11.15;;;5.60;;
31652;SDS011;18261;53.648;9.910;2022-12-07T15:49:29;13.50;;;4.25;;
31652;SDS011;18261;53.648;9.910;2022-12-07T15:51:55;12.25;;;3.40;;
31652;SDS011;18261;53.648;9.910;2022-12-07T15:54:25;19.98;;;4.30;;
31652;SDS011;18261;53.648;9.910;2022-12-07T15:56:51;18.52;;;6.53;;
31652;SDS011;18261;53.648;9.910;2022-12-07T15:59:17;24.70;;;7.22;;
31652;SDS011;18261;53.648;9.910;2022-12-07T16:01:43;17.52;;;6.30;;
31652;SDS011;18261;53.648;9.910;2022-12-07T16:04:09;16.80;;;5.13;;
31652;SDS011;18261;53.648;9.910;2022-12-07T16:06:36;18.63;;;5.75;;
31652;SDS011;18261;53.648;9.910;2022-12-07T16:09:02;28.00;;;8.70;;
31652;SDS011;18261;53.648;9.910;2022-12-07T16:11:28;25.55;;;8.07;;
31652;SDS011;18261;53.648;9.910;2022-12-07T16:13:54;16.48;;;5.93;;
31652;SDS011;18261;53.648;9.910;2022-12-07T16:16:20;23.35;;;5.30;;
31652;SDS011;18261;53.648;9.910;2022-12-07T16:18:49;19.40;;;5.43;;
31652;SDS011;18261;53.648;9.910;2022-12-07T16:21:15;17.58;;;5.75;;
31652;SDS011;18261;53.648;9.910;2022-12-07T16:23:42;16.63;;;5.80;;
31652;SDS011;18261;53.648;9.910;2022-12-07T16:26:10;16.20;;;5.15;;
31652;SDS011;18261;53.648;9.910;2022-12-07T16:28:36;24.35;;;5.95;;
31652;SDS011;18261;53.648;9.910;2022-12-07T16:31:06;13.50;;;5.28;;
31652;SDS011;18261;53.648;9.910;2022-12-07T16:33:34;14.10;;;4.50;;
31652;SDS011;18261;53.648;9.910;2022-12-07T16:36:01;11.93;;;4.63;;
31652;SDS011;18261;53.648;9.910;2022-12-07T16:38:27;22.70;;;5.95;;
31652;SDS011;18261;53.648;9.910;2022-12-07T16:40:53;20.27;;;6.45;;